sensor_id;sensor_type;location;lat;lon;timestamp;pressure;altitude;pressure_sealevel;temperature;humidity
47374;BME280;33123;50.118;10.272;2023-04-05T00:02:24;98334.38;;;1.81;55.56
47374;BME280;33123;50.118;10.272;2023-04-05T00:04:55;98326.41;;;1.82;55.61
47374;BME280;33123;50.118;10.272;2023-04-05T00:07:23;98328.03;;;1.83;56.19
47374;BME280;33123;50.118;10.272;2023-04-05T00:09:51;98328.84;;;1.84;55.60
47374;BME280;33123;50.118;10.272;2023-04-05T00:12:17;98324.16;;;1.79;55.72
47374;BME280;33123;50.118;10.272;2023-04-05T00:14:44;98322.09;;;1.75;55.36
47374;BME280;33123;50.118;10.272;2023-04-05T00:17:11;98318.56;;;1.68;55.26
47374;BME280;33123;50.118;10.272;2023-04-05T00:19:37;98314.38;;;1.67;55.30
47374;BME280;33123;50.118;10.272;2023-04-05T00:22:05;98310.78;;;1.68;55.95
47374;BME280;33123;50.118;10.272;2023-04-05T00:24:34;98314.50;;;1.65;56.62
47374;BME280;33123;50.118;10.272;2023-04-05T00:27:06;98311.63;;;1.60;56.09
47374;BME280;33123;50.118;10.272;2023-04-05T00:29:32;98299.50;;;1.52;56.28
47374;BME280;33123;50.118;10.272;2023-04-05T00:32:00;98297.91;;;1.51;57.20
47374;BME280;33123;50.118;10.272;2023-04-05T00:34:26;98301.94;;;1.54;56.08
47374;BME280;33123;50.118;10.272;2023-04-05T00:36:53;98299.84;;;1.49;56.82
47374;BME280;33123;50.118;10.272;2023-04-05T00:39:21;98294.66;;;1.49;56.45
47374;BME280;33123;50.118;10.272;2023-04-05T00:41:47;98293.41;;;1.45;56.79
47374;BME280;33123;50.118;10.272;2023-04-05T00:44:14;98293.41;;;1.45;57.02
47374;BME280;33123;50.118;10.272;2023-04-05T00:46:40;98294.91;;;1.40;57.26
47374;BME280;33123;50.118;10.272;2023-04-05T00:49:07;98289.84;;;1.38;57.33
47374;BME280;33123;50.118;10.272;2023-04-05T00:51:35;98281.94;;;1.31;57.45
47374;BME280;33123;50.118;10.272;2023-04-05T00:54:02;98287.63;;;1.35;56.97
47374;BME280;33123;50.118;10.272;2023-04-05T00:56:31;98286.00;;;1.34;57.22
47374;BME280;33123;50.118;10.272;2023-04-05T00:58:58;98218.47;;;0.88;57.19
47374;BME280;33123;50.118;10.272;2023-04-05T01:01:25;98280.84;;;1.26;56.89
47374;BME280;33123;50.118;10.272;2023-04-05T01:03:56;98279.75;;;1.20;57.39
47374;BME280;33123;50.118;10.272;2023-04-05T01:06:43;98272.63;;;1.22;57.67
47374;BME280;33123;50.118;10.272;2023-04-05T01:09:20;98278.16;;;1.19;57.87
47374;BME280;33123;50.118;10.272;2023-04-05T01:11:53;98272.16;;;1.19;57.63
47374;BME280;33123;50.118;10.272;2023-04-05T01:14:22;98273.63;;;1.13;57.34
47374;BME280;33123;50.118;10.272;2023-04-05T01:16:48;98271.22;;;1.12;57.92
47374;BME280;33123;50.118;10.272;2023-04-05T01:19:15;98268.97;;;1.09;57.89
47374;BME280;33123;50.118;10.272;2023-04-05T01:22:00;98268.34;;;1.07;57.29
47374;BME280;33123;50.118;10.272;2023-04-05T01:24:48;98264.75;;;1.08;57.18
47374;BME280;33123;50.118;10.272;2023-04-05T01:27:22;98262.78;;;1.10;57.66
47374;BME280;33123;50.118;10.272;2023-04-05T01:30:02;98256.16;;;1.07;57.71
47374;BME280;33123;50.118;10.272;2023-04-05T01:32:40;98228.84;;;0.88;57.63
47374;BME280;33123;50.118;10.272;2023-04-05T01:35:16;98265.72;;;1.07;58.45
47374;BME280;33123;50.118;10.272;2023-04-05T01:37:48;98255.69;;;1.03;57.39
47374;BME280;33123;50.118;10.272;2023-04-05T01:40:15;98251.81;;;0.99;58.02
47374;BME280;33123;50.118;10.272;2023-04-05T01:42:43;98255.38;;;0.98;57.52
47374;BME280;33123;50.118;10.272;2023-04-05T01:45:12;98247.94;;;0.95;58.36
47374;BME280;33123;50.118;10.272;2023-04-05T01:47:38;98242.47;;;0.90;58.39
47374;BME280;33123;50.118;10.272;2023-04-05T01:50:06;98244.88;;;0.92;58.10
47374;BME280;33123;50.118;10.272;2023-04-05T01:52:33;98247.66;;;0.90;58.71
47374;BME280;33123;50.118;10.272;2023-04-05T01:55:00;98249.25;;;0.91;58.63
47374;BME280;33123;50.118;10.272;2023-04-05T01:57:27;98248.28;;;0.92;58.25
47374;BME280;33123;50.118;10.272;2023-04-05T01:59:54;98244.06;;;0.91;58.73
47374;BME280;33123;50.118;10.272;2023-04-05T02:02:22;98250.88;;;0.92;58.50
47374;BME280;33123;50.118;10.272;2023-04-05T02:04:48;98246.00;;;0.97;58.14
47374;BME280;33123;50.118;10.272;2023-04-05T02:07:15;98241.41;;;0.99;57.82
47374;BME280;33123;50.118;10.272;2023-04-05T02:09:41;98245.00;;;0.98;58.33
47374;BME280;33123;50.118;10.272;2023-04-05T02:12:08;98233.00;;;0.97;58.82
47374;BME280;33123;50.118;10.272;2023-04-05T02:14:35;98233.19;;;0.96;59.03
47374;BME280;33123;50.118;10.272;2023-04-05T02:17:01;98239.81;;;0.98;58.26
47374;BME280;33123;50.118;10.272;2023-04-05T02:19:29;98240.78;;;0.97;58.15
47374;BME280;33123;50.118;10.272;2023-04-05T02:22:05;98236.59;;;0.96;58.83
47374;BME280;33123;50.118;10.272;2023-04-05T02:24:32;98240.78;;;0.97;58.71
47374;BME280;33123;50.118;10.272;2023-04-05T02:26:58;98236.59;;;0.96;59.12
47374;BME280;33123;50.118;10.272;2023-04-05T02:29:25;98235.59;;;0.97;58.40
47374;BME280;33123;50.118;10.272;2023-04-05T02:31:51;98236.59;;;0.96;57.97
47374;BME280;33123;50.118;10.272;2023-04-05T02:34:18;98232.09;;;0.90;58.96
47374;BME280;33123;50.118;10.272;2023-04-05T02:36:48;98228.03;;;0.88;58.39
47374;BME280;33123;50.118;10.272;2023-04-05T02:39:15;98233.22;;;0.88;58.28
47374;BME280;33123;50.118;10.272;2023-04-05T02:41:42;98226.25;;;0.88;59.53
47374;BME280;33123;50.118;10.272;2023-04-05T02:44:09;98229.19;;;0.85;58.59
47374;BME280;33123;50.118;10.272;2023-04-05T02:46:35;98231.31;;;0.82;59.41
47374;BME280;33123;50.118;10.272;2023-04-05T02:49:02;98231.13;;;0.83;59.30
47374;BME280;33123;50.118;10.272;2023-04-05T02:51:28;98234.88;;;0.81;59.79
47374;BME280;33123;50.118;10.272;2023-04-05T02:54:00;98231.38;;;0.73;58.61
47374;BME280;33123;50.118;10.272;2023-04-05T02:56:27;98226.31;;;0.72;58.73
47374;BME280;33123;50.118;10.272;2023-04-05T02:58:54;98231.19;;;0.75;59.49
47374;BME280;33123;50.118;10.272;2023-04-05T03:01:20;98207.13;;;0.50;59.36
47374;BME280;33123;50.118;10.272;2023-04-05T03:03:48;98233.31;;;0.71;59.44
47374;BME280;33123;50.118;10.272;2023-04-05T03:06:15;98230.59;;;0.65;59.23
47374;BME280;33123;50.118;10.272;2023-04-05T03:08:42;98240.28;;;0.71;59.70
47374;BME280;33123;50.118;10.272;2023-04-05T03:11:12;98238.03;;;0.68;59.02
47374;BME280;33123;50.118;10.272;2023-04-05T03:13:39;98236.44;;;0.67;59.26
47374;BME280;33123;50.118;10.272;2023-04-05T03:16:06;98233.53;;;0.62;59.58
47374;BME280;33123;50.118;10.272;2023-04-05T03:18:33;98229.59;;;0.66;59.09
47374;BME280;33123;50.118;10.272;2023-04-05T03:20:59;98230.59;;;0.65;59.53
47374;BME280;33123;50.118;10.272;2023-04-05T03:23:27;98225.88;;;0.68;60.07
47374;BME280;33123;50.118;10.272;2023-04-05T03:25:56;98226.69;;;0.69;59.73
47374;BME280;33123;50.118;10.272;2023-04-05T03:28:25;98225.06;;;0.68;60.03
47374;BME280;33123;50.118;10.272;2023-04-05T03:30:51;98224.59;;;0.64;59.85
47374;BME280;33123;50.118;10.272;2023-04-05T03:33:18;98175.59;;;0.38;60.20
47374;BME280;33123;50.118;10.272;2023-04-05T03:35:45;98222.69;;;0.58;59.87
47374;BME280;33123;50.118;10.272;2023-04-05T03:38:12;98216.00;;;0.64;59.81
47374;BME280;33123;50.118;10.272;2023-04-05T03:40:40;98215.38;;;0.62;59.96
47374;BME280;33123;50.118;10.272;2023-04-05T03:43:06;98215.22;;;0.55;60.05
47374;BME280;33123;50.118;10.272;2023-04-05T03:45:34;98216.22;;;0.54;59.40
47374;BME280;33123;50.118;10.272;2023-04-05T03:48:01;98201.81;;;0.51;59.79
47374;BME280;33123;50.118;10.272;2023-04-05T03:50:28;98214.59;;;0.53;60.03
47374;BME280;33123;50.118;10.272;2023-04-05T03:52:55;98213.16;;;0.50;60.12
47374;BME280;33123;50.118;10.272;2023-04-05T03:55:21;98217.06;;;0.46;59.83
47374;BME280;33123;50.118;10.272;2023-04-05T03:57:48;98217.88;;;0.47;60.74
47374;BME280;33123;50.118;10.272;2023-04-05T04:00:15;98219.97;;;0.43;60.50
47374;BME280;33123;50.118;10.272;2023-04-05T04:02:44;98224.34;;;0.43;60.40
47374;BME280;33123;50.118;10.272;2023-04-05T04:05:12;98157.94;;;0.03;60.23
47374;BME280;33123;50.118;10.272;2023-04-05T04:07:38;98215.94;;;0.41;60.12
47374;BME280;33123;50.118;10.272;2023-04-05T04:10:08;98218.53;;;0.41;60.10
47374;BME280;33123;50.118;10.272;2023-04-05T04:12:35;98223.06;;;0.39;59.87
47374;BME280;33123;50.118;10.272;2023-04-05T04:15:03;98219.03;;;0.36;60.84
47374;BME280;33123;50.118;10.272;2023-04-05T04:17:31;98212.25;;;0.35;60.22
47374;BME280;33123;50.118;10.272;2023-04-05T04:20:00;98205.44;;;0.34;60.09
47374;BME280;33123;50.118;10.272;2023-04-05T04:22:32;98208.03;;;0.34;61.01
47374;BME280;33123;50.118;10.272;2023-04-05T04:24:58;98218.22;;;0.36;60.47
47374;BME280;33123;50.118;10.272;2023-04-05T04:27:27;98215.47;;;0.37;60.69
47374;BME280;33123;50.118;10.272;2023-04-05T04:29:54;98219.53;;;0.40;60.43
47374;BME280;33123;50.118;10.272;2023-04-05T04:32:27;98216.75;;;0.41;59.87
47374;BME280;33123;50.118;10.272;2023-04-05T04:35:16;98220.66;;;0.37;60.37
47374;BME280;33123;50.118;10.272;2023-04-05T04:37:45;98216.13;;;0.31;60.16
47374;BME280;33123;50.118;10.272;2023-04-05T04:40:16;98208.03;;;0.34;59.94
47374;BME280;33123;50.118;10.272;2023-04-05T04:42:42;98203.22;;;0.23;60.04
47374;BME280;33123;50.118;10.272;2023-04-05T04:45:11;98194.34;;;0.17;60.19
47374;BME280;33123;50.118;10.272;2023-04-05T04:47:40;98220.53;;;0.31;60.49
47374;BME280;33123;50.118;10.272;2023-04-05T04:50:08;98217.28;;;0.29;60.52
47374;BME280;33123;50.118;10.272;2023-04-05T04:52:36;98208.53;;;0.30;60.37
47374;BME280;33123;50.118;10.272;2023-04-05T04:55:04;98107.56;;;-0.42;60.35
47374;BME280;33123;50.118;10.272;2023-04-05T04:57:31;98213.25;;;0.26;60.88
47374;BME280;33123;50.118;10.272;2023-04-05T04:59:57;98210.66;;;0.26;60.48
47374;BME280;33123;50.118;10.272;2023-04-05T05:02:25;98195.75;;;0.20;60.03
47374;BME280;33123;50.118;10.272;2023-04-05T05:04:53;98211.31;;;0.28;60.46
47374;BME280;33123;50.118;10.272;2023-04-05T05:07:19;98215.34;;;0.31;60.52
47374;BME280;33123;50.118;10.272;2023-04-05T05:09:48;98214.19;;;0.33;60.28
47374;BME280;33123;50.118;10.272;2023-04-05T05:12:18;98183.16;;;0.09;60.32
47374;BME280;33123;50.118;10.272;2023-04-05T05:14:46;98210.16;;;0.31;59.27
47374;BME280;33123;50.118;10.272;2023-04-05T05:17:13;98218.53;;;0.41;59.95
47374;BME280;33123;50.118;10.272;2023-04-05T05:19:40;98217.38;;;0.43;60.40
47374;BME280;33123;50.118;10.272;2023-04-05T05:22:06;98216.13;;;0.39;60.49
47374;BME280;33123;50.118;10.272;2023-04-05T05:24:33;98219.00;;;0.44;59.63
47374;BME280;33123;50.118;10.272;2023-04-05T05:27:01;98212.59;;;0.63;60.76
47374;BME280;33123;50.118;10.272;2023-04-05T05:29:27;98217.09;;;1.00;59.88
47374;BME280;33123;50.118;10.272;2023-04-05T05:31:54;98211.94;;;1.38;58.13
47374;BME280;33123;50.118;10.272;2023-04-05T05:34:21;98214.84;;;1.81;56.52
47374;BME280;33123;50.118;10.272;2023-04-05T05:36:48;98219.00;;;2.20;55.94
47374;BME280;33123;50.118;10.272;2023-04-05T05:39:15;98225.34;;;2.61;54.50
47374;BME280;33123;50.118;10.272;2023-04-05T05:41:42;98219.88;;;2.92;52.98
47374;BME280;33123;50.118;10.272;2023-04-05T05:44:11;98216.34;;;3.22;52.42
47374;BME280;33123;50.118;10.272;2023-04-05T05:46:37;98214.47;;;3.58;51.01
47374;BME280;33123;50.118;10.272;2023-04-05T05:49:04;98212.94;;;3.92;49.90
47374;BME280;33123;50.118;10.272;2023-04-05T05:51:30;98210.78;;;4.37;48.92
47374;BME280;33123;50.118;10.272;2023-04-05T05:53:57;98212.38;;;4.86;48.91
47374;BME280;33123;50.118;10.272;2023-04-05T05:56:24;98209.28;;;5.37;46.99
47374;BME280;33123;50.118;10.272;2023-04-05T05:58:51;98214.91;;;5.87;45.59
47374;BME280;33123;50.118;10.272;2023-04-05T06:01:19;98215.66;;;6.33;44.07
47374;BME280;33123;50.118;10.272;2023-04-05T06:03:47;98216.69;;;6.84;42.86
47374;BME280;33123;50.118;10.272;2023-04-05T06:06:14;98211.00;;;7.25;41.36
47374;BME280;33123;50.118;10.272;2023-04-05T06:08:41;98202.75;;;7.78;41.26
47374;BME280;33123;50.118;10.272;2023-04-05T06:11:16;98211.69;;;8.14;40.17
47374;BME280;33123;50.118;10.272;2023-04-05T06:13:43;98212.19;;;8.48;39.57
47374;BME280;33123;50.118;10.272;2023-04-05T06:16:09;98217.75;;;8.88;38.50
47374;BME280;33123;50.118;10.272;2023-04-05T06:18:37;98211.63;;;9.24;37.66
47374;BME280;33123;50.118;10.272;2023-04-05T06:21:04;98214.00;;;9.56;36.83
47374;BME280;33123;50.118;10.272;2023-04-05T06:23:30;98208.41;;;9.99;36.53
47374;BME280;33123;50.118;10.272;2023-04-05T06:25:58;98220.31;;;10.37;36.16
47374;BME280;33123;50.118;10.272;2023-04-05T06:28:24;98217.94;;;10.75;34.82
47374;BME280;33123;50.118;10.272;2023-04-05T06:30:52;98163.66;;;10.91;34.17
47374;BME280;33123;50.118;10.272;2023-04-05T06:33:19;98206.13;;;11.69;33.27
47374;BME280;33123;50.118;10.272;2023-04-05T06:35:47;98210.53;;;12.13;32.72
47374;BME280;33123;50.118;10.272;2023-04-05T06:38:14;98217.84;;;12.67;32.29
47374;BME280;33123;50.118;10.272;2023-04-05T06:40:41;98209.81;;;13.06;30.76
47374;BME280;33123;50.118;10.272;2023-04-05T06:43:07;98205.13;;;13.40;30.46
47374;BME280;33123;50.118;10.272;2023-04-05T06:45:34;98204.34;;;13.71;28.81
47374;BME280;33123;50.118;10.272;2023-04-05T06:48:01;98206.06;;;13.93;29.27
47374;BME280;33123;50.118;10.272;2023-04-05T06:50:28;98205.91;;;14.10;28.94
47374;BME280;33123;50.118;10.272;2023-04-05T06:52:56;98214.78;;;14.31;28.73
47374;BME280;33123;50.118;10.272;2023-04-05T06:55:23;98213.84;;;14.47;27.76
47374;BME280;33123;50.118;10.272;2023-04-05T06:57:49;98214.41;;;14.59;28.29
47374;BME280;33123;50.118;10.272;2023-04-05T07:00:16;98221.38;;;14.75;28.49
47374;BME280;33123;50.118;10.272;2023-04-05T07:02:43;98216.41;;;14.89;27.43
47374;BME280;33123;50.118;10.272;2023-04-05T07:05:10;98220.16;;;15.03;27.10
47374;BME280;33123;50.118;10.272;2023-04-05T07:07:38;98222.56;;;15.05;27.71
47374;BME280;33123;50.118;10.272;2023-04-05T07:10:07;98225.63;;;14.71;25.65
47374;BME280;33123;50.118;10.272;2023-04-05T07:12:34;98225.75;;;14.44;25.57
47374;BME280;33123;50.118;10.272;2023-04-05T07:15:01;98227.16;;;14.15;26.20
47374;BME280;33123;50.118;10.272;2023-04-05T07:17:28;98219.44;;;14.08;26.62
47374;BME280;33123;50.118;10.272;2023-04-05T07:19:54;98222.16;;;14.18;28.03
47374;BME280;33123;50.118;10.272;2023-04-05T07:22:21;98223.81;;;14.30;26.13
47374;BME280;33123;50.118;10.272;2023-04-05T07:24:47;98223.19;;;14.17;25.62
47374;BME280;33123;50.118;10.272;2023-04-05T07:27:15;98218.97;;;14.16;25.98
47374;BME280;33123;50.118;10.272;2023-04-05T07:29:42;98225.16;;;14.37;27.52
47374;BME280;33123;50.118;10.272;2023-04-05T07:32:09;98215.47;;;14.58;28.22
47374;BME280;33123;50.118;10.272;2023-04-05T07:34:36;98226.97;;;14.79;26.05
47374;BME280;33123;50.118;10.272;2023-04-05T07:37:04;98191.66;;;14.73;26.04
47374;BME280;33123;50.118;10.272;2023-04-05T07:39:31;98224.19;;;15.16;26.45
47374;BME280;33123;50.118;10.272;2023-04-05T07:41:58;98229.00;;;15.45;25.92
47374;BME280;33123;50.118;10.272;2023-04-05T07:44:26;98225.88;;;15.78;26.62
47374;BME280;33123;50.118;10.272;2023-04-05T07:46:52;98229.03;;;15.96;23.89
47374;BME280;33123;50.118;10.272;2023-04-05T07:49:23;98221.31;;;16.04;23.69
47374;BME280;33123;50.118;10.272;2023-04-05T07:51:53;98220.50;;;16.19;24.51
47374;BME280;33123;50.118;10.272;2023-04-05T07:54:19;98213.59;;;16.13;23.53
47374;BME280;33123;50.118;10.272;2023-04-05T07:56:46;98223.41;;;16.28;23.77
47374;BME280;33123;50.118;10.272;2023-04-05T07:59:13;98212.50;;;16.29;24.09
47374;BME280;33123;50.118;10.272;2023-04-05T08:01:41;98210.09;;;16.28;24.33
47374;BME280;33123;50.118;10.272;2023-04-05T08:04:08;98214.59;;;16.37;23.79
47374;BME280;33123;50.118;10.272;2023-04-05T08:06:35;98215.09;;;16.50;23.60
47374;BME280;33123;50.118;10.272;2023-04-05T08:09:02;98215.97;;;16.25;23.14
47374;BME280;33123;50.118;10.272;2023-04-05T08:11:30;98213.59;;;16.08;23.64
47374;BME280;33123;50.118;10.272;2023-04-05T08:13:57;98218.13;;;15.82;23.78
47374;BME280;33123;50.118;10.272;2023-04-05T08:16:24;98157.78;;;15.31;23.87
47374;BME280;33123;50.118;10.272;2023-04-05T08:18:52;98210.94;;;15.57;23.59
47374;BME280;33123;50.118;10.272;2023-04-05T08:21:19;98204.88;;;15.77;24.87
47374;BME280;33123;50.118;10.272;2023-04-05T08:23:46;98187.59;;;15.79;23.56
47374;BME280;33123;50.118;10.272;2023-04-05T08:26:14;98206.97;;;16.10;24.19
47374;BME280;33123;50.118;10.272;2023-04-05T08:28:41;98202.94;;;16.23;22.88
47374;BME280;33123;50.118;10.272;2023-04-05T08:31:08;98167.91;;;15.96;22.46
47374;BME280;33123;50.118;10.272;2023-04-05T08:33:36;98211.72;;;16.08;22.87
47374;BME280;33123;50.118;10.272;2023-04-05T08:36:06;98185.97;;;15.58;22.45
47374;BME280;33123;50.118;10.272;2023-04-05T08:38:33;98208.28;;;15.88;22.17
47374;BME280;33123;50.118;10.272;2023-04-05T08:41:07;98208.31;;;15.72;22.80
47374;BME280;33123;50.118;10.272;2023-04-05T08:43:55;98220.28;;;15.70;22.58
47374;BME280;33123;50.118;10.272;2023-04-05T08:46:23;98203.53;;;15.69;22.68
47374;BME280;33123;50.118;10.272;2023-04-05T08:48:52;98204.03;;;15.61;22.38
47374;BME280;33123;50.118;10.272;2023-04-05T08:51:21;98204.03;;;15.36;22.71
47374;BME280;33123;50.118;10.272;2023-04-05T08:53:48;98164.97;;;15.11;23.07
47374;BME280;33123;50.118;10.272;2023-04-05T08:56:19;98202.19;;;15.62;22.80
47374;BME280;33123;50.118;10.272;2023-04-05T08:58:49;98195.00;;;15.47;22.18
47374;BME280;33123;50.118;10.272;2023-04-05T09:01:19;98199.53;;;15.56;22.38
47374;BME280;33123;50.118;10.272;2023-04-05T09:03:48;98193.41;;;15.97;21.76
47374;BME280;33123;50.118;10.272;2023-04-05T09:06:18;98198.19;;;15.54;22.21
47374;BME280;33123;50.118;10.272;2023-04-05T09:08:48;98199.53;;;15.87;21.83
47374;BME280;33123;50.118;10.272;2023-04-05T09:11:15;98202.19;;;15.97;21.37
47374;BME280;33123;50.118;10.272;2023-04-05T09:13:42;98191.22;;;16.29;21.46
47374;BME280;33123;50.118;10.272;2023-04-05T09:16:09;98191.16;;;16.50;21.33
47374;BME280;33123;50.118;10.272;2023-04-05T09:18:37;98202.84;;;16.49;21.26
47374;BME280;33123;50.118;10.272;2023-04-05T09:21:04;98188.56;;;16.24;21.05
47374;BME280;33123;50.118;10.272;2023-04-05T09:23:32;98194.97;;;15.26;21.72
47374;BME280;33123;50.118;10.272;2023-04-05T09:26:15;98154.88;;;14.30;22.34
47374;BME280;33123;50.118;10.272;2023-04-05T09:28:42;98187.59;;;14.03;23.44
47374;BME280;33123;50.118;10.272;2023-04-05T09:31:09;98182.69;;;13.47;24.57
47374;BME280;33123;50.118;10.272;2023-04-05T09:33:57;98196.00;;;13.58;25.01
47374;BME280;33123;50.118;10.272;2023-04-05T09:36:24;98187.59;;;14.03;24.08
47374;BME280;33123;50.118;10.272;2023-04-05T09:38:52;98187.38;;;14.62;23.29
47374;BME280;33123;50.118;10.272;2023-04-05T09:41:20;98191.97;;;14.77;23.28
47374;BME280;33123;50.118;10.272;2023-04-05T09:43:47;98189.28;;;14.72;22.66
47374;BME280;33123;50.118;10.272;2023-04-05T09:46:28;98190.34;;;14.18;23.36
47374;BME280;33123;50.118;10.272;2023-04-05T09:48:55;98074.91;;;13.48;24.13
47374;BME280;33123;50.118;10.272;2023-04-05T09:51:22;98177.41;;;14.32;23.25
47374;BME280;33123;50.118;10.272;2023-04-05T09:53:57;98194.41;;;14.94;23.55
47374;BME280;33123;50.118;10.272;2023-04-05T09:56:26;98183.47;;;14.80;23.31
47374;BME280;33123;50.118;10.272;2023-04-05T09:58:58;98182.66;;;14.79;23.00
47374;BME280;33123;50.118;10.272;2023-04-05T10:01:26;98176.06;;;14.97;22.65
47374;BME280;33123;50.118;10.272;2023-04-05T10:03:56;98177.91;;;14.87;22.86
47374;BME280;33123;50.118;10.272;2023-04-05T10:06:23;98166.78;;;14.95;24.68
47374;BME280;33123;50.118;10.272;2023-04-05T10:08:50;98177.47;;;15.51;23.78
47374;BME280;33123;50.118;10.272;2023-04-05T10:11:17;98177.19;;;15.52;22.23
47374;BME280;33123;50.118;10.272;2023-04-05T10:13:46;98170.00;;;15.17;22.53
47374;BME280;33123;50.118;10.272;2023-04-05T10:16:18;98173.22;;;15.50;22.21
47374;BME280;33123;50.118;10.272;2023-04-05T10:18:49;98174.53;;;15.42;22.52
47374;BME280;33123;50.118;10.272;2023-04-05T10:21:21;98162.06;;;15.53;22.18
47374;BME280;33123;50.118;10.272;2023-04-05T10:23:54;98144.78;;;15.76;22.62
47374;BME280;33123;50.118;10.272;2023-04-05T10:26:35;98155.03;;;16.28;23.10
47374;BME280;33123;50.118;10.272;2023-04-05T10:29:08;98149.63;;;16.49;21.46
47374;BME280;33123;50.118;10.272;2023-04-05T10:31:49;98154.69;;;16.50;21.91
47374;BME280;33123;50.118;10.272;2023-04-05T10:34:23;98151.69;;;16.72;24.43
47374;BME280;33123;50.118;10.272;2023-04-05T10:36:57;98134.00;;;16.92;22.63
47374;BME280;33123;50.118;10.272;2023-04-05T10:39:26;98151.50;;;17.03;21.19
47374;BME280;33123;50.118;10.272;2023-04-05T10:41:54;98082.09;;;16.94;21.55
47374;BME280;33123;50.118;10.272;2023-04-05T10:44:26;98147.75;;;17.43;20.65
47374;BME280;33123;50.118;10.272;2023-04-05T10:46:54;98105.34;;;17.47;22.51
47374;BME280;33123;50.118;10.272;2023-04-05T10:49:21;98148.91;;;18.19;22.37
47374;BME280;33123;50.118;10.272;2023-04-05T10:51:51;98147.69;;;18.78;22.02
47374;BME280;33123;50.118;10.272;2023-04-05T10:54:19;98150.09;;;19.31;21.93
47374;BME280;33123;50.118;10.272;2023-04-05T10:56:46;98147.88;;;19.71;20.34
47374;BME280;33123;50.118;10.272;2023-04-05T10:59:14;98136.63;;;19.88;21.24
47374;BME280;33123;50.118;10.272;2023-04-05T11:01:44;98147.81;;;19.57;19.19
47374;BME280;33123;50.118;10.272;2023-04-05T11:04:13;98147.09;;;18.81;19.18
47374;BME280;33123;50.118;10.272;2023-04-05T11:06:40;98143.94;;;18.12;19.35
47374;BME280;33123;50.118;10.272;2023-04-05T11:09:10;98142.66;;;17.47;20.27
47374;BME280;33123;50.118;10.272;2023-04-05T11:11:40;98149.09;;;17.40;21.29
47374;BME280;33123;50.118;10.272;2023-04-05T11:14:18;98143.25;;;16.50;21.00
47374;BME280;33123;50.118;10.272;2023-04-05T11:16:47;98142.81;;;16.32;21.09
47374;BME280;33123;50.118;10.272;2023-04-05T11:19:15;98140.97;;;16.28;21.61
47374;BME280;33123;50.118;10.272;2023-04-05T11:21:42;98094.53;;;15.90;21.43
47374;BME280;33123;50.118;10.272;2023-04-05T11:24:11;98136.84;;;16.56;23.52
47374;BME280;33123;50.118;10.272;2023-04-05T11:26:53;98132.28;;;16.72;21.72
47374;BME280;33123;50.118;10.272;2023-04-05T11:29:46;98122.63;;;16.81;21.60
47374;BME280;33123;50.118;10.272;2023-04-05T11:32:16;98112.75;;;16.81;21.30
47374;BME280;33123;50.118;10.272;2023-04-05T11:34:44;98124.16;;;16.92;22.46
47374;BME280;33123;50.118;10.272;2023-04-05T11:37:22;98128.66;;;16.97;22.04
47374;BME280;33123;50.118;10.272;2023-04-05T11:40:25;98121.84;;;16.70;21.40
47374;BME280;33123;50.118;10.272;2023-04-05T11:43:02;98102.38;;;16.30;21.91
47374;BME280;33123;50.118;10.272;2023-04-05T11:45:30;98115.16;;;16.28;23.44
47374;BME280;33123;50.118;10.272;2023-04-05T11:48:01;98110.38;;;16.20;23.40
47374;BME280;33123;50.118;10.272;2023-04-05T11:50:30;98109.44;;;15.75;22.12
47374;BME280;33123;50.118;10.272;2023-04-05T11:53:13;98105.19;;;14.98;22.94
47374;BME280;33123;50.118;10.272;2023-04-05T11:55:42;98113.09;;;14.57;23.30
47374;BME280;33123;50.118;10.272;2023-04-05T11:58:11;98107.03;;;14.04;23.06
47374;BME280;33123;50.118;10.272;2023-04-05T12:00:38;98109.63;;;13.99;23.97
47374;BME280;33123;50.118;10.272;2023-04-05T12:03:10;98104.72;;;13.70;24.06
47374;BME280;33123;50.118;10.272;2023-04-05T12:05:47;98103.94;;;13.33;24.55
47374;BME280;33123;50.118;10.272;2023-04-05T12:08:16;98096.47;;;13.25;24.96
47374;BME280;33123;50.118;10.272;2023-04-05T12:10:42;98095.03;;;13.44;26.58
47374;BME280;33123;50.118;10.272;2023-04-05T12:13:09;98088.91;;;13.86;27.03
47374;BME280;33123;50.118;10.272;2023-04-05T12:15:37;98069.97;;;14.19;26.10
47374;BME280;33123;50.118;10.272;2023-04-05T12:18:11;98083.34;;;14.45;23.77
47374;BME280;33123;50.118;10.272;2023-04-05T12:20:40;98080.75;;;14.55;23.48
47374;BME280;33123;50.118;10.272;2023-04-05T12:23:07;98078.13;;;14.96;24.31
47374;BME280;33123;50.118;10.272;2023-04-05T12:25:34;98071.50;;;15.09;23.76
47374;BME280;33123;50.118;10.272;2023-04-05T12:28:04;98072.00;;;15.56;23.60
47374;BME280;33123;50.118;10.272;2023-04-05T12:30:31;98074.88;;;15.86;23.08
47374;BME280;33123;50.118;10.272;2023-04-05T12:33:07;98069.78;;;15.99;23.64
47374;BME280;33123;50.118;10.272;2023-04-05T12:35:34;98070.06;;;15.93;22.32
47374;BME280;33123;50.118;10.272;2023-04-05T12:38:02;98068.00;;;15.54;22.46
47374;BME280;33123;50.118;10.272;2023-04-05T12:40:30;98062.75;;;15.13;23.29
47374;BME280;33123;50.118;10.272;2023-04-05T12:43:02;98056.38;;;14.89;23.01
47374;BME280;33123;50.118;10.272;2023-04-05T12:45:30;98060.91;;;14.00;23.63
47374;BME280;33123;50.118;10.272;2023-04-05T12:48:08;98058.72;;;14.49;24.86
47374;BME280;33123;50.118;10.272;2023-04-05T12:50:41;98051.44;;;14.24;24.49
47374;BME280;33123;50.118;10.272;2023-04-05T12:53:14;98054.03;;;14.09;24.54
47374;BME280;33123;50.118;10.272;2023-04-05T12:55:47;98044.81;;;14.17;24.03
47374;BME280;33123;50.118;10.272;2023-04-05T12:58:15;98037.63;;;14.12;26.34
47374;BME280;33123;50.118;10.272;2023-04-05T13:00:43;98041.38;;;14.21;25.29
47374;BME280;33123;50.118;10.272;2023-04-05T13:03:17;98020.47;;;14.45;26.36
47374;BME280;33123;50.118;10.272;2023-04-05T13:05:45;98032.66;;;14.36;25.33